Time;durP1;ratioP1;P1;durP2;ratioP2;P2;SDS_P1;SDS_P2;PMS_P1;PMS_P2;Temp;Humidity;BMP_temperature;BMP_pressure;BME280_temperature;BME280_humidity;BME280_pressure;Samples;Min_cycle;Max_cycle;Signal;HPM_P1;HPM_P2
2022/09/09 00:02:20;;;;;;;0.85;0.00;;;15.40;99.90;;;;;;4995846;28;20510;-75
2022/09/09 00:05:29;;;;;;;2.65;0.00;;;15.40;99.90;;;;;;4996050;28;20022;-75
2022/09/09 00:08:01;;;;;;;0.10;0.00;;;15.40;99.90;;;;;;4974733;28;20041;-74
2022/09/09 00:10:42;;;;;;;3.60;0.32;;;15.30;99.90;;;;;;5013532;28;20029;-74
2022/09/09 00:13:49;;;;;;;0.43;0.10;;;15.30;99.90;;;;;;5013303;28;20076;-74
2022/09/09 00:16:22;;;;;;;1.75;0.00;;;15.30;99.90;;;;;;4991687;28;20069;-76
2022/09/09 00:18:50;;;;;;;2.40;0.10;;;15.20;99.90;;;;;;5013132;28;20022;-76
2022/09/09 00:21:17;;;;;;;2.83;0.47;;;15.20;99.90;;;;;;4995443;28;20128;-77
2022/09/09 00:23:52;;;;;;;2.45;0.05;;;15.20;99.90;;;;;;5013046;28;20026;-76
2022/09/09 00:26:30;;;;;;;1.08;0.10;;;15.20;99.90;;;;;;4995470;28;20022;-77
2022/09/09 00:29:07;;;;;;;0.30;0.10;;;15.10;99.90;;;;;;5013902;28;20022;-77
2022/09/09 00:31:33;;;;;;;1.85;0.40;;;15.10;99.90;;;;;;5013595;28;20029;-77
2022/09/09 00:34:12;;;;;;;1.85;0.22;;;15.00;99.90;;;;;;5013071;28;20018;-76
2022/09/09 00:36:38;;;;;;;1.63;0.10;;;15.00;99.90;;;;;;5013433;28;20029;-77
2022/09/09 00:39:05;;;;;;;1.95;0.13;;;14.90;99.90;;;;;;4995414;28;20026;-76
2022/09/09 00:41:42;;;;;;;0.45;0.30;;;14.90;99.90;;;;;;5013059;28;20079;-76
2022/09/09 00:44:26;;;;;;;1.35;0.10;;;14.90;99.90;;;;;;5013459;28;20022;-76
2022/09/09 00:46:55;;;;;;;0.82;0.28;;;14.90;99.90;;;;;;4995437;28;20035;-75
2022/09/09 00:49:29;;;;;;;;;;;14.90;99.90;;;;;;5013521;28;20037;-76
2022/09/09 00:52:22;;;;;;;1.33;0.20;;;14.80;99.90;;;;;;5013093;28;19941;-76
2022/09/09 00:55:05;;;;;;;0.93;0.30;;;14.80;99.90;;;;;;5015707;28;20026;-77
2022/09/09 00:57:35;;;;;;;0.63;0.20;;;14.80;99.90;;;;;;5016404;28;20026;-76
2022/09/09 01:00:19;;;;;;;0.75;0.20;;;14.70;99.90;;;;;;5016236;28;20034;-77
2022/09/09 01:02:45;;;;;;;0.90;0.30;;;14.70;99.90;;;;;;4998837;28;20505;-77
2022/09/09 01:05:42;;;;;;;0.77;0.45;;;14.70;99.90;;;;;;4999249;28;20030;-77
2022/09/09 01:08:52;;;;;;;2.08;0.28;;;14.70;99.90;;;;;;4970137;28;20026;-77
2022/09/09 01:11:29;;;;;;;1.50;0.63;;;14.70;99.90;;;;;;4937189;29;20135;-76
2022/09/09 01:14:20;;;;;;;5.07;0.30;;;14.60;99.90;;;;;;5011296;28;20046;-78
2022/09/09 01:16:47;;;;;;;1.80;0.13;;;14.50;99.90;;;;;;5016802;28;20034;-77
2022/09/09 01:19:30;;;;;;;1.98;0.20;;;14.50;99.90;;;;;;5016924;28;20061;-77
2022/09/09 01:22:11;;;;;;;1.08;0.20;;;14.50;99.90;;;;;;5016951;28;20069;-78
2022/09/09 01:25:08;;;;;;;1.25;0.68;;;14.50;99.90;;;;;;5016698;28;20030;-77
2022/09/09 01:27:37;;;;;;;5.00;0.63;;;14.50;99.90;;;;;;5016829;28;20145;-77
2022/09/09 01:30:11;;;;;;;1.55;0.30;;;14.40;99.90;;;;;;5017115;28;20026;-77
2022/09/09 01:32:53;;;;;;;3.30;0.40;;;14.40;99.90;;;;;;5016623;28;20022;-77
2022/09/09 01:35:22;;;;;;;2.15;0.70;;;14.40;99.90;;;;;;4998292;28;20022;-75
2022/09/09 01:37:47;;;;;;;2.22;0.32;;;14.30;99.90;;;;;;5016200;28;20030;-75
2022/09/09 01:40:13;;;;;;;4.93;0.32;;;14.30;99.90;;;;;;5015684;28;20423;-74
2022/09/09 01:42:39;;;;;;;0.75;0.30;;;14.30;99.90;;;;;;5015850;28;20472;-75
2022/09/09 01:45:05;;;;;;;2.13;0.50;;;14.30;99.90;;;;;;5015772;28;20474;-74
2022/09/09 01:47:31;;;;;;;4.20;0.30;;;14.20;99.90;;;;;;5015395;28;20030;-74
2022/09/09 01:49:56;;;;;;;3.10;0.22;;;14.20;99.90;;;;;;5015659;28;20025;-74
2022/09/09 01:52:22;;;;;;;2.00;0.15;;;14.20;99.90;;;;;;5015596;28;20018;-74
2022/09/09 01:54:48;;;;;;;2.92;0.65;;;14.10;99.90;;;;;;5015543;28;20022;-74
2022/09/09 01:57:24;;;;;;;1.63;0.25;;;14.10;99.90;;;;;;5015320;28;20030;-74
2022/09/09 02:00:09;;;;;;;3.25;0.55;;;14.10;99.90;;;;;;5015316;28;20083;-75
2022/09/09 02:02:43;;;;;;;2.47;0.30;;;14.10;99.90;;;;;;5015296;28;20029;-74
2022/09/09 02:05:20;;;;;;;2.38;0.38;;;14.10;99.90;;;;;;4997104;28;20416;-74
2022/09/09 02:07:51;;;;;;;2.05;0.30;;;14.00;99.90;;;;;;5015720;28;20077;-74
2022/09/09 02:10:32;;;;;;;2.30;0.47;;;14.00;99.90;;;;;;5015343;28;20072;-74
2022/09/09 02:13:09;;;;;;;2.08;0.40;;;14.00;99.90;;;;;;5015120;28;20029;-74
2022/09/09 02:15:50;;;;;;;3.63;0.88;;;14.00;99.90;;;;;;5015097;28;20040;-74
2022/09/09 02:18:23;;;;;;;2.80;1.02;;;14.00;99.90;;;;;;5015554;28;20025;-73
2022/09/09 02:20:51;;;;;;;2.70;0.65;;;14.00;99.90;;;;;;5014871;28;20479;-73
2022/09/09 02:23:19;;;;;;;1.37;0.20;;;14.00;99.90;;;;;;5015526;28;20022;-77
2022/09/09 02:25:46;;;;;;;1.52;0.43;;;13.90;99.90;;;;;;5015150;28;20045;-76
2022/09/09 02:28:14;;;;;;;2.47;0.43;;;13.90;99.90;;;;;;4996928;28;20458;-76
2022/09/09 02:30:43;;;;;;;3.05;0.68;;;14.00;99.90;;;;;;5015149;28;20025;-77
2022/09/09 02:33:12;;;;;;;4.63;0.93;;;14.00;99.90;;;;;;4997739;28;20033;-76
2022/09/09 02:35:38;;;;;;;;;;;14.00;99.90;;;;;;5015632;28;20509;-77
2022/09/09 02:38:08;;;;;;;7.53;0.55;;;13.90;99.90;;;;;;5015264;28;19905;-77
2022/09/09 02:40:33;;;;;;;9.40;0.93;;;14.00;99.90;;;;;;4997780;28;20387;-77
2022/09/09 02:43:00;;;;;;;1.55;0.77;;;14.00;99.90;;;;;;4997412;28;20030;-77
2022/09/09 02:45:31;;;;;;;2.60;0.55;;;13.90;99.90;;;;;;5015198;28;20026;-76
2022/09/09 02:48:09;;;;;;;3.60;0.65;;;13.90;99.90;;;;;;5015088;28;20021;-76
2022/09/09 02:51:00;;;;;;;1.88;0.63;;;13.90;99.90;;;;;;5014719;28;20065;-76
2022/09/09 02:53:39;;;;;;;1.00;0.70;;;13.90;99.90;;;;;;4986130;28;20033;-76
2022/09/09 02:56:13;;;;;;;4.45;0.35;;;13.90;99.90;;;;;;5014283;28;20041;-75
2022/09/09 02:58:40;;;;;;;3.75;1.00;;;13.90;99.90;;;;;;5014317;28;20030;-76
2022/09/09 03:01:05;;;;;;;1.90;0.98;;;13.90;99.90;;;;;;5014301;28;20044;-76
2022/09/09 03:03:31;;;;;;;1.65;0.57;;;13.90;99.90;;;;;;5014165;28;20022;-77
2022/09/09 03:05:57;;;;;;;1.33;0.75;;;13.90;99.90;;;;;;5014512;28;20100;-77
2022/09/09 03:08:23;;;;;;;4.70;0.50;;;14.00;99.90;;;;;;4996922;28;20014;-75
2022/09/09 03:10:49;;;;;;;1.58;0.60;;;14.00;99.90;;;;;;4996484;28;20092;-75
2022/09/09 03:13:15;;;;;;;2.47;0.77;;;14.00;99.90;;;;;;4996144;28;20033;-75
2022/09/09 03:15:40;;;;;;;1.98;0.55;;;13.90;99.90;;;;;;5013789;28;20068;-75
2022/09/09 03:18:06;;;;;;;1.85;0.57;;;14.00;99.90;;;;;;5013441;28;20062;-75
2022/09/09 03:20:32;;;;;;;1.42;0.50;;;13.90;99.90;;;;;;5013891;28;20026;-75
2022/09/09 03:23:00;;;;;;;2.40;0.90;;;13.90;99.90;;;;;;5013871;28;20018;-75
2022/09/09 03:25:26;;;;;;;3.15;1.17;;;13.90;99.90;;;;;;5013691;28;20026;-74
2022/09/09 03:27:54;;;;;;;6.68;1.10;;;13.80;99.90;;;;;;5013861;28;20076;-74
2022/09/09 03:30:27;;;;;;;4.95;0.70;;;13.80;99.90;;;;;;4995919;28;20032;-74
2022/09/09 03:32:54;;;;;;;3.78;0.77;;;13.80;99.90;;;;;;5013643;28;20053;-74
2022/09/09 03:35:20;;;;;;;4.82;0.90;;;13.80;99.90;;;;;;4995885;28;20092;-74
2022/09/09 03:37:46;;;;;;;1.77;0.80;;;13.80;99.90;;;;;;4995901;28;20427;-75
2022/09/09 03:40:12;;;;;;;4.60;1.23;;;13.70;99.90;;;;;;5013528;28;20471;-74
2022/09/09 03:42:38;;;;;;;3.78;0.55;;;13.70;99.90;;;;;;5013623;28;20096;-74
2022/09/09 03:45:06;;;;;;;1.90;0.82;;;13.70;99.90;;;;;;5013622;28;20022;-74
2022/09/09 03:47:31;;;;;;;2.45;0.75;;;13.70;99.90;;;;;;5013589;28;20491;-74
2022/09/09 03:49:57;;;;;;;5.93;1.13;;;13.60;99.90;;;;;;5013581;28;20110;-74
2022/09/09 03:52:24;;;;;;;1.77;0.40;;;13.60;99.90;;;;;;5013518;28;20033;-75
2022/09/09 03:54:51;;;;;;;3.38;1.23;;;13.60;99.90;;;;;;5013585;28;20479;-74
2022/09/09 03:57:17;;;;;;;2.53;0.95;;;13.60;99.90;;;;;;5013345;28;20018;-74
2022/09/09 03:59:45;;;;;;;7.30;1.23;;;13.60;99.90;;;;;;5014010;28;20076;-74
2022/09/09 04:02:11;;;;;;;2.33;0.70;;;13.60;99.90;;;;;;4995949;28;20018;-74
2022/09/09 04:04:38;;;;;;;6.40;0.90;;;13.60;99.90;;;;;;4995794;28;20030;-74
2022/09/09 04:07:06;;;;;;;3.20;0.93;;;13.60;99.90;;;;;;4995813;28;20120;-74
2022/09/09 04:09:32;;;;;;;3.40;0.43;;;13.60;99.90;;;;;;5013387;28;20044;-74
2022/09/09 04:11:57;;;;;;;2.40;0.63;;;13.50;99.90;;;;;;4995482;28;20026;-74
2022/09/09 04:14:28;;;;;;;5.45;1.00;;;13.60;99.90;;;;;;5013205;28;20526;-74
2022/09/09 04:16:54;;;;;;;1.42;0.68;;;13.60;99.90;;;;;;5013196;28;20061;-74
2022/09/09 04:19:19;;;;;;;1.70;1.05;;;13.60;99.90;;;;;;5013359;28;20060;-74
2022/09/09 04:21:45;;;;;;;4.15;1.05;;;13.60;99.90;;;;;;5013420;28;20037;-74
2022/09/09 04:24:11;;;;;;;2.13;1.00;;;13.60;99.90;;;;;;5013635;28;20018;-74
2022/09/09 04:26:37;;;;;;;1.00;0.50;;;13.70;99.90;;;;;;5013566;28;20475;-74
2022/09/09 04:29:04;;;;;;;1.75;0.50;;;13.70;99.90;;;;;;5014798;28;20057;-74
2022/09/09 04:31:29;;;;;;;3.03;0.77;;;13.70;99.90;;;;;;5016879;28;20030;-74
2022/09/09 04:33:55;;;;;;;4.38;0.88;;;13.70;99.90;;;;;;5016791;28;20491;-74
2022/09/09 04:36:21;;;;;;;4.07;0.60;;;13.80;99.90;;;;;;5017126;28;20026;-74
2022/09/09 04:38:48;;;;;;;3.10;0.80;;;13.70;99.90;;;;;;5017870;28;20057;-75
2022/09/09 04:41:15;;;;;;;1.90;0.63;;;13.60;99.90;;;;;;5017544;28;20107;-74
2022/09/09 04:43:40;;;;;;;4.55;0.75;;;13.70;99.90;;;;;;5016635;28;20113;-74
2022/09/09 04:46:06;;;;;;;2.78;0.80;;;13.70;99.90;;;;;;5016582;28;20045;-74
2022/09/09 04:48:32;;;;;;;4.43;1.15;;;13.60;99.90;;;;;;4999079;28;20025;-74
2022/09/09 04:51:01;;;;;;;2.65;0.73;;;13.60;99.90;;;;;;5016670;28;20105;-74
2022/09/09 04:53:26;;;;;;;4.50;0.90;;;13.60;99.90;;;;;;5016580;28;20018;-75
2022/09/09 04:56:01;;;;;;;4.07;1.23;;;13.50;99.90;;;;;;5016656;28;20053;-74
2022/09/09 04:58:26;;;;;;;2.50;0.90;;;13.50;99.90;;;;;;4999022;28;20112;-75
2022/09/09 05:00:52;;;;;;;2.22;0.82;;;13.50;99.90;;;;;;5016399;28;20109;-74
2022/09/09 05:03:18;;;;;;;6.75;0.82;;;13.50;99.90;;;;;;5016671;28;20080;-73
2022/09/09 05:05:44;;;;;;;3.88;0.90;;;13.50;99.90;;;;;;5016528;28;20490;-73
2022/09/09 05:08:10;;;;;;;2.45;0.55;;;13.50;99.90;;;;;;5016238;28;20025;-74
2022/09/09 05:10:38;;;;;;;3.85;0.73;;;13.50;99.90;;;;;;5016282;28;20034;-75
2022/09/09 05:13:04;;;;;;;3.90;0.60;;;13.50;99.90;;;;;;5037428;23;20124;-74
2022/09/09 05:15:30;;;;;;;1.77;0.63;;;13.60;99.90;;;;;;5036008;28;20024;-73
2022/09/09 05:18:02;;;;;;;9.55;0.82;;;13.60;99.90;;;;;;5035971;28;20101;-76
2022/09/09 05:20:29;;;;;;;3.58;1.05;;;13.60;99.90;;;;;;5036045;28;20128;-74
2022/09/09 05:22:56;;;;;;;2.70;0.80;;;13.60;99.90;;;;;;5036393;28;20120;-74
2022/09/09 05:25:24;;;;;;;2.75;0.85;;;13.60;99.90;;;;;;5035667;28;20057;-74
2022/09/09 05:27:50;;;;;;;2.22;0.60;;;13.60;99.90;;;;;;5035709;28;20017;-74
2022/09/09 05:30:16;;;;;;;4.50;0.50;;;13.70;99.90;;;;;;5036124;28;20056;-78
2022/09/09 05:32:43;;;;;;;5.15;0.73;;;13.60;99.90;;;;;;5018208;28;20026;-73
2022/09/09 05:35:08;;;;;;;1.33;0.70;;;13.70;99.90;;;;;;5017781;28;20021;-73
2022/09/09 05:37:34;;;;;;;5.18;0.95;;;13.70;99.90;;;;;;5017884;28;20025;-73
2022/09/09 05:40:00;;;;;;;4.38;1.05;;;13.70;99.90;;;;;;5034766;28;20026;-73
2022/09/09 05:42:30;;;;;;;4.13;0.55;;;13.70;99.90;;;;;;5035335;28;20100;-73
2022/09/09 05:44:56;;;;;;;2.08;0.47;;;13.70;99.90;;;;;;5035059;28;20014;-77
2022/09/09 05:47:21;;;;;;;4.40;0.95;;;13.80;99.90;;;;;;5035165;28;20030;-76
2022/09/09 05:49:47;;;;;;;3.85;0.47;;;13.80;99.90;;;;;;5035036;28;20101;-75
2022/09/09 05:52:12;;;;;;;4.72;0.75;;;13.80;99.90;;;;;;5035400;28;20022;-76
2022/09/09 05:54:38;;;;;;;5.40;0.95;;;14.20;99.90;;;;;;5035242;28;20066;-75
2022/09/09 05:57:05;;;;;;;3.92;1.23;;;13.90;99.90;;;;;;5035139;28;20033;-75
2022/09/09 05:59:32;;;;;;;1.70;0.28;;;14.00;99.90;;;;;;5017206;28;20079;-76
2022/09/09 06:01:57;;;;;;;3.58;0.60;;;14.10;99.90;;;;;;5034960;28;20022;-77
2022/09/09 06:04:24;;;;;;;2.35;0.40;;;14.10;99.90;;;;;;5034935;28;20021;-75
2022/09/09 06:06:53;;;;;;;3.28;0.65;;;14.90;99.90;;;;;;5035048;28;20018;-75
2022/09/09 06:09:19;;;;;;;3.83;0.93;;;14.90;99.90;;;;;;5035274;28;20032;-75
2022/09/09 06:11:45;;;;;;;4.13;0.60;;;14.30;99.90;;;;;;5034513;28;20036;-75
2022/09/09 06:14:11;;;;;;;6.75;0.40;;;14.40;99.90;;;;;;5034888;28;20033;-76
2022/09/09 06:16:41;;;;;;;3.80;0.80;;;14.40;99.90;;;;;;5035283;28;20390;-75
2022/09/09 06:19:06;;;;;;;4.72;0.50;;;14.40;99.90;;;;;;5016755;28;20404;-76
2022/09/09 06:21:36;;;;;;;6.07;0.65;;;14.50;99.90;;;;;;5016606;28;20028;-76
2022/09/09 06:24:03;;;;;;;7.00;0.63;;;14.60;99.90;;;;;;5034649;28;20028;-76
2022/09/09 06:26:33;;;;;;;2.47;0.20;;;14.70;99.90;;;;;;5016906;28;20018;-75
2022/09/09 06:29:00;;;;;;;2.92;0.60;;;14.90;99.90;;;;;;5016929;28;20018;-75
2022/09/09 06:31:30;;;;;;;4.45;0.20;;;15.40;99.90;;;;;;5034875;28;20100;-75
2022/09/09 06:33:56;;;;;;;5.43;1.10;;;15.20;99.90;;;;;;5034760;28;20029;-76
2022/09/09 06:36:24;;;;;;;3.13;0.10;;;15.30;99.90;;;;;;5034546;28;20364;-75
2022/09/09 06:38:50;;;;;;;7.22;0.30;;;15.40;99.90;;;;;;5034263;28;20026;-76
2022/09/09 06:41:21;;;;;;;3.80;0.50;;;15.50;99.90;;;;;;5034125;28;20025;-76
2022/09/09 06:43:47;;;;;;;4.50;0.30;;;15.60;99.90;;;;;;5034772;28;20026;-76
2022/09/09 06:46:18;;;;;;;3.30;0.60;;;15.60;99.90;;;;;;5034269;28;20013;-76
2022/09/09 06:48:45;;;;;;;3.17;0.43;;;15.60;99.90;;;;;;5016305;28;20037;-76
2022/09/09 06:51:12;;;;;;;5.78;0.20;;;15.60;99.90;;;;;;5033890;28;20022;-75
2022/09/09 06:53:39;;;;;;;7.30;0.68;;;15.70;99.90;;;;;;5033959;28;20040;-75
2022/09/09 06:56:11;;;;;;;2.60;0.35;;;15.70;99.90;;;;;;5033866;28;20025;-76
2022/09/09 06:58:42;;;;;;;6.88;0.52;;;15.80;99.90;;;;;;5034332;28;20117;-76
2022/09/09 07:01:09;;;;;;;4.50;0.25;;;15.90;99.90;;;;;;5033798;28;20022;-76
2022/09/09 07:03:35;;;;;;;11.77;0.70;;;16.00;99.90;;;;;;5033967;28;20473;-76
2022/09/09 07:06:01;;;;;;;0.82;0.22;;;16.10;99.90;;;;;;5033771;28;20040;-76
2022/09/09 07:08:28;;;;;;;2.67;0.70;;;16.30;99.90;;;;;;5033814;28;20076;-77
2022/09/09 07:10:53;;;;;;;2.90;0.10;;;16.50;99.90;;;;;;5017279;28;20026;-77
2022/09/09 07:13:25;;;;;;;2.85;0.20;;;16.80;99.90;;;;;;5017311;28;20037;-77
2022/09/09 07:15:50;;;;;;;8.05;0.88;;;16.90;99.90;;;;;;5035353;28;20486;-78
2022/09/09 07:18:16;;;;;;;3.70;0.20;;;17.10;99.90;;;;;;5017619;28;20033;-77
2022/09/09 07:20:42;;;;;;;4.45;0.10;;;17.10;99.90;;;;;;5016617;28;20483;-77
2022/09/09 07:23:07;;;;;;;5.10;0.85;;;17.10;99.90;;;;;;5016796;28;20040;-77
2022/09/09 07:25:33;;;;;;;5.10;0.77;;;17.20;99.90;;;;;;5034218;28;20022;-77
2022/09/09 07:27:58;;;;;;;3.40;0.13;;;17.10;99.90;;;;;;5016577;28;20048;-77
2022/09/09 07:30:24;;;;;;;6.38;0.52;;;17.20;99.90;;;;;;5034537;28;20022;-77
2022/09/09 07:32:51;;;;;;;2.60;0.00;;;17.20;99.90;;;;;;5016588;28;20032;-78
2022/09/09 07:35:17;;;;;;;4.95;0.70;;;17.20;99.90;;;;;;5033806;28;20017;-77
2022/09/09 07:37:45;;;;;;;4.18;0.30;;;17.20;99.90;;;;;;5034382;28;20022;-76
2022/09/09 07:40:10;;;;;;;11.82;0.88;;;17.20;99.90;;;;;;5017031;28;20109;-77
2022/09/09 07:42:37;;;;;;;3.25;0.25;;;17.00;99.90;;;;;;5033976;28;20057;-77
2022/09/09 07:45:03;;;;;;;0.60;0.10;;;17.00;99.90;;;;;;5034299;28;20094;-77
2022/09/09 07:47:29;;;;;;;3.38;0.20;;;17.00;99.90;;;;;;5034816;28;20100;-77
2022/09/09 07:49:55;;;;;;;1.77;0.10;;;17.10;99.90;;;;;;5034709;28;20048;-77
2022/09/09 07:52:21;;;;;;;5.90;0.52;;;17.20;99.90;;;;;;5034525;28;20104;-77
2022/09/09 07:54:47;;;;;;;3.33;0.47;;;17.30;99.90;;;;;;5034290;28;20099;-78
2022/09/09 07:57:12;;;;;;;4.63;0.80;;;17.30;99.90;;;;;;5016658;28;20080;-78
2022/09/09 07:59:38;;;;;;;4.85;0.30;;;17.20;99.90;;;;;;5037007;28;20033;-78
2022/09/09 08:02:03;;;;;;;7.68;0.75;;;17.20;99.90;;;;;;5037162;28;20077;-78
2022/09/09 08:04:29;;;;;;;1.55;0.20;;;17.10;99.90;;;;;;5039656;28;20068;-77
2022/09/09 08:07:00;;;;;;;3.47;0.30;;;17.00;99.90;;;;;;5021078;28;20014;-78
2022/09/09 08:09:28;;;;;;;3.17;0.30;;;17.00;99.90;;;;;;5020929;28;20032;-78
2022/09/09 08:11:56;;;;;;;3.80;0.20;;;17.10;99.90;;;;;;5020219;28;20052;-77
2022/09/09 08:14:22;;;;;;;6.90;0.00;;;17.20;99.90;;;;;;5037812;28;20041;-77
2022/09/09 08:16:49;;;;;;;4.97;0.20;;;17.20;99.90;;;;;;5038184;28;20029;-77
2022/09/09 08:19:16;;;;;;;4.22;0.20;;;17.20;99.90;;;;;;5038468;28;20044;-77
2022/09/09 08:21:44;;;;;;;1.75;0.10;;;17.20;99.90;;;;;;5037799;28;20342;-77
2022/09/09 08:24:11;;;;;;;1.38;0.20;;;17.10;99.90;;;;;;5037808;28;20032;-77
2022/09/09 08:26:39;;;;;;;2.97;0.10;;;17.10;99.90;;;;;;5038323;28;20581;-77
2022/09/09 08:29:06;;;;;;;2.65;0.60;;;17.20;99.90;;;;;;5037960;28;20048;-77
2022/09/09 08:31:57;;;;;;;9.68;0.10;;;17.20;99.90;;;;;;5037665;28;20083;-77
2022/09/09 08:34:24;;;;;;;1.80;0.13;;;17.20;99.90;;;;;;5028198;28;20458;-78
2022/09/09 08:36:50;;;;;;;3.05;0.10;;;17.30;99.90;;;;;;5040049;28;20026;-78
2022/09/09 08:39:18;;;;;;;2.95;0.20;;;17.40;99.90;;;;;;5039765;28;20025;-78
2022/09/09 08:42:02;;;;;;;3.63;0.20;;;17.70;99.90;;;;;;5021914;28;20026;-78
2022/09/09 08:44:34;;;;;;;6.43;1.10;;;17.70;99.90;;;;;;5021822;28;20032;-78
2022/09/09 08:46:59;;;;;;;3.00;0.35;;;17.70;99.90;;;;;;5039827;28;20080;-78
2022/09/09 08:49:43;;;;;;;3.15;0.08;;;17.70;99.90;;;;;;5021885;28;20029;-78
2022/09/09 08:52:18;;;;;;;3.50;0.70;;;17.70;99.90;;;;;;5022316;28;20506;-78
2022/09/09 08:54:45;;;;;;;4.07;0.60;;;17.60;99.90;;;;;;5040134;28;20021;-78
2022/09/09 08:57:26;;;;;;;4.22;0.20;;;17.60;99.90;;;;;;5021982;28;20051;-78
2022/09/09 08:59:54;;;;;;;3.35;0.00;;;17.70;99.90;;;;;;5040328;28;20040;-78
2022/09/09 09:02:49;;;;;;;3.40;0.50;;;17.60;99.90;;;;;;5019772;28;20056;-77
2022/09/09 09:05:37;;;;;;;3.47;0.13;;;17.60;99.90;;;;;;5037878;28;20378;-78
2022/09/09 09:08:21;;;;;;;3.45;0.38;;;17.50;99.90;;;;;;5037212;28;20021;-77
2022/09/09 09:10:50;;;;;;;4.97;0.20;;;17.50;99.90;;;;;;5019331;28;20093;-77
2022/09/09 09:13:37;;;;;;;5.38;0.20;;;17.50;99.90;;;;;;5035331;28;20029;-78
2022/09/09 09:16:36;;;;;;;3.28;0.20;;;17.50;99.90;;;;;;5035658;28;20168;-77
2022/09/09 09:19:02;;;;;;;4.93;0.22;;;17.40;99.90;;;;;;5019266;28;20132;-77
2022/09/09 09:21:39;;;;;;;5.03;0.20;;;17.30;99.90;;;;;;5036487;28;20022;-78
2022/09/09 09:24:18;;;;;;;5.32;0.17;;;17.30;99.90;;;;;;5034574;28;20080;-77
2022/09/09 09:26:44;;;;;;;6.47;0.30;;;17.30;99.90;;;;;;5018870;28;20021;-78
2022/09/09 09:29:17;;;;;;;5.07;0.77;;;17.20;99.90;;;;;;5036771;28;20069;-77
2022/09/09 09:31:54;;;;;;;3.13;0.13;;;17.30;99.90;;;;;;5036917;28;20033;-77
2022/09/09 09:34:20;;;;;;;2.58;0.25;;;17.30;99.90;;;;;;5033945;28;20106;-78
2022/09/09 09:36:52;;;;;;;4.50;0.17;;;17.20;99.90;;;;;;5034836;28;20031;-77
2022/09/09 09:39:30;;;;;;;4.10;0.43;;;17.30;99.90;;;;;;5018640;28;20394;-77
2022/09/09 09:41:57;;;;;;;3.95;0.88;;;17.30;99.90;;;;;;5035835;28;20112;-77
2022/09/09 09:44:28;;;;;;;3.85;0.43;;;17.40;99.90;;;;;;5034113;28;20096;-78
2022/09/09 09:47:08;;;;;;;4.10;0.32;;;17.30;99.90;;;;;;5036774;28;20155;-78
2022/09/09 09:49:34;;;;;;;3.17;0.10;;;17.20;99.90;;;;;;5020537;28;20428;-77
2022/09/09 09:52:04;;;;;;;4.43;0.10;;;17.20;99.90;;;;;;5034827;28;20120;-78
2022/09/09 09:54:35;;;;;;;3.30;0.20;;;17.00;99.90;;;;;;5035564;28;20394;-77
2022/09/09 09:57:29;;;;;;;3.33;0.00;;;17.00;99.90;;;;;;5036302;28;20030;-77
2022/09/09 10:00:17;;;;;;;2.65;0.00;;;17.00;99.90;;;;;;5033815;28;20042;-78
2022/09/09 10:02:45;;;;;;;4.63;0.13;;;17.00;99.90;;;;;;5036769;28;20055;-77
2022/09/09 10:05:17;;;;;;;5.90;0.20;;;17.10;99.90;;;;;;5036820;28;20026;-77
2022/09/09 10:07:46;;;;;;;5.15;0.20;;;17.10;99.90;;;;;;5017792;28;20017;-77
2022/09/09 10:10:41;;;;;;;5.88;0.20;;;17.10;99.90;;;;;;5018036;28;20155;-78
2022/09/09 10:13:58;;;;;;;7.63;0.30;;;17.20;99.90;;;;;;5016081;28;20052;-77
2022/09/09 10:16:49;;;;;;;4.50;0.35;;;17.20;99.90;;;;;;5031329;28;20041;-77
2022/09/09 10:19:35;;;;;;;4.35;0.40;;;17.20;99.90;;;;;;5017895;28;20032;-76
2022/09/09 10:22:27;;;;;;;3.10;0.25;;;17.20;99.90;;;;;;5035922;28;20398;-77
2022/09/09 10:25:11;;;;;;;6.85;0.43;;;17.30;99.90;;;;;;5036234;28;20459;-77
2022/09/09 10:28:03;;;;;;;2.03;0.05;;;17.30;99.90;;;;;;5035436;28;20489;-78
2022/09/09 10:31:04;;;;;;;4.53;0.30;;;17.30;99.90;;;;;;5036428;28;20478;-77
2022/09/09 10:33:56;;;;;;;6.28;0.50;;;17.40;99.90;;;;;;5018269;28;20080;-77
2022/09/09 10:36:28;;;;;;;3.83;0.55;;;17.60;99.90;;;;;;5036028;28;20048;-77
2022/09/09 10:38:59;;;;;;;8.45;0.93;;;17.70;99.90;;;;;;5017996;28;20546;-77
2022/09/09 10:41:55;;;;;;;4.13;0.70;;;18.00;99.90;;;;;;5018000;28;20422;-78
2022/09/09 10:44:42;;;;;;;4.05;0.00;;;18.10;99.90;;;;;;5018264;28;20383;-78
2022/09/09 10:47:38;;;;;;;3.92;0.65;;;18.30;99.90;;;;;;5037274;28;20100;-78
2022/09/09 10:50:35;;;;;;;5.93;0.15;;;18.40;99.90;;;;;;5035876;28;20393;-77
2022/09/09 10:53:45;;;;;;;3.95;0.38;;;18.50;99.90;;;;;;5035197;28;20028;-76
2022/09/09 10:56:15;;;;;;;4.60;0.20;;;18.80;99.90;;;;;;5035414;28;20516;-77
2022/09/09 10:59:02;;;;;;;2.35;0.17;;;18.90;99.90;;;;;;5034983;28;20017;-77
2022/09/09 11:02:00;;;;;;;4.55;0.45;;;18.90;99.90;;;;;;5035541;28;20117;-77
2022/09/09 11:04:34;;;;;;;1.20;0.20;;;19.00;99.90;;;;;;4986006;28;20437;-77
2022/09/09 11:07:05;;;;;;;2.65;0.10;;;19.00;99.90;;;;;;5034638;28;20060;-77
2022/09/09 11:09:39;;;;;;;9.25;0.90;;;19.00;99.90;;;;;;5035131;28;20124;-78
2022/09/09 11:12:09;;;;;;;3.50;0.10;;;19.00;99.90;;;;;;5035260;28;20025;-77
2022/09/09 11:14:42;;;;;;;2.40;0.10;;;18.80;99.90;;;;;;5034755;28;20072;-77
2022/09/09 11:17:20;;;;;;;6.22;0.85;;;18.80;99.90;;;;;;5034636;28;20026;-77
2022/09/09 11:19:46;;;;;;;4.38;0.20;;;18.70;99.90;;;;;;5035052;28;20462;-77
2022/09/09 11:22:26;;;;;;;2.42;0.00;;;18.60;99.90;;;;;;5016728;28;20022;-77
2022/09/09 11:24:52;;;;;;;5.15;0.30;;;18.60;99.90;;;;;;5034591;28;20104;-77
2022/09/09 11:27:26;;;;;;;3.60;0.20;;;18.50;99.90;;;;;;5016869;28;20060;-79
2022/09/09 11:29:57;;;;;;;3.97;0.25;;;18.40;99.90;;;;;;5037361;28;20037;-78
2022/09/09 11:32:46;;;;;;;5.28;0.25;;;18.60;99.90;;;;;;5036630;28;20026;-78
2022/09/09 11:35:32;;;;;;;5.60;0.47;;;18.60;99.90;;;;;;5035271;28;20030;-77
2022/09/09 11:38:39;;;;;;;2.22;0.05;;;18.70;99.90;;;;;;5015836;28;20390;-77
2022/09/09 11:41:09;;;;;;;3.97;0.50;;;18.70;99.90;;;;;;5013025;28;20095;-77
2022/09/09 11:43:47;;;;;;;2.55;0.55;;;18.60;99.90;;;;;;5034717;28;20023;-77
2022/09/09 11:46:15;;;;;;;9.65;1.13;;;18.70;99.90;;;;;;5034282;28;20022;-77
2022/09/09 11:49:01;;;;;;;0.73;0.00;;;18.50;99.90;;;;;;5034167;28;20079;-77
2022/09/09 11:51:28;;;;;;;3.17;0.10;;;18.50;99.90;;;;;;5034174;28;20486;-77
2022/09/09 11:53:58;;;;;;;2.13;0.00;;;18.50;99.90;;;;;;5017148;28;20033;-78
2022/09/09 11:56:43;;;;;;;0.98;0.10;;;18.50;99.90;;;;;;5035855;28;20049;-78
2022/09/09 11:59:30;;;;;;;1.45;0.17;;;18.40;99.90;;;;;;5036107;28;20076;-79
2022/09/09 12:02:01;;;;;;;1.15;0.00;;;18.20;99.90;;;;;;5036058;28;20026;-76
2022/09/09 12:04:36;;;;;;;3.60;0.43;;;18.20;99.90;;;;;;5033670;28;20025;-75
2022/09/09 12:07:20;;;;;;;3.30;0.20;;;18.20;99.90;;;;;;5033225;28;20025;-75
2022/09/09 12:09:56;;;;;;;1.27;0.00;;;18.10;99.90;;;;;;5015775;28;20021;-76
2022/09/09 12:12:29;;;;;;;2.08;0.25;;;18.10;99.90;;;;;;5033010;28;20037;-75
2022/09/09 12:15:01;;;;;;;4.25;0.77;;;18.10;99.90;;;;;;5015373;28;20546;-75
2022/09/09 12:17:34;;;;;;;1.85;0.30;;;18.00;99.90;;;;;;5033671;28;20036;-75
2022/09/09 12:20:16;;;;;;;2.35;0.15;;;18.00;99.90;;;;;;5033689;28;20056;-75
2022/09/09 12:23:16;;;;;;;4.30;0.35;;;18.00;99.90;;;;;;5015328;28;20037;-75
2022/09/09 12:26:19;;;;;;;5.72;0.20;;;18.00;99.90;;;;;;5019295;28;20036;-75
2022/09/09 12:28:59;;;;;;;3.28;0.35;;;17.90;99.90;;;;;;5015219;28;20076;-75
2022/09/09 12:31:28;;;;;;;5.30;0.00;;;18.00;99.90;;;;;;5033586;28;20083;-75
2022/09/09 12:33:53;;;;;;;3.05;0.10;;;18.10;99.90;;;;;;5015198;28;20033;-75
2022/09/09 12:36:24;;;;;;;2.28;0.63;;;18.30;99.90;;;;;;5015230;28;20395;-74
2022/09/09 12:38:51;;;;;;;1.50;0.22;;;18.30;99.90;;;;;;5032987;28;20033;-74
2022/09/09 12:41:25;;;;;;;7.35;0.52;;;18.60;99.90;;;;;;5015056;28;20021;-74
2022/09/09 12:44:03;;;;;;;0.95;0.13;;;18.90;99.90;;;;;;5015199;28;20080;-74
2022/09/09 12:46:40;;;;;;;4.80;0.30;;;19.30;99.90;;;;;;5015128;28;20048;-74
2022/09/09 12:49:24;;;;;;;2.85;0.10;;;19.70;99.90;;;;;;5033790;28;20064;-74
2022/09/09 12:51:50;;;;;;;2.17;0.30;;;19.90;99.90;;;;;;5018774;28;20393;-74
2022/09/09 12:54:16;;;;;;;1.20;0.63;;;20.10;99.90;;;;;;5036989;28;20021;-74
2022/09/09 12:56:47;;;;;;;2.08;0.00;;;19.90;99.90;;;;;;5037809;28;20049;-74
2022/09/09 12:59:25;;;;;;;6.10;0.80;;;19.80;99.90;;;;;;5018674;28;20478;-75
2022/09/09 13:01:58;;;;;;;2.38;0.00;;;19.70;99.90;;;;;;5036324;28;20029;-75
2022/09/09 13:04:24;;;;;;;4.20;0.52;;;19.50;99.90;;;;;;5036350;28;20033;-75
2022/09/09 13:06:49;;;;;;;3.63;0.10;;;19.40;99.90;;;;;;5036484;28;20025;-75
2022/09/09 13:09:15;;;;;;;1.05;0.10;;;19.30;99.90;;;;;;5036347;28;20014;-75
2022/09/09 13:11:52;;;;;;;3.05;0.43;;;19.20;99.90;;;;;;5036045;28;20018;-75
2022/09/09 13:14:28;;;;;;;2.42;0.20;;;19.10;99.90;;;;;;5036488;28;20090;-75
2022/09/09 13:16:57;;;;;;;2.33;0.05;;;19.00;99.90;;;;;;5018231;28;20029;-74